Hovedside
METAR-TAF:

METAR-TAF

Lufthavner :

Kajana, Finland

Kajana lufthavn

breddegrad: 64-17N, lengdegrad: 027-41E, høyde over havet: 143 m

Gjeldene værobservasjon

Denne rapporten ble laget for 12 minutter siden, klokken 22:20 UTC
Vind 4 kt fra Nordøst
Temperatur 12°C
Luftfuktighet 94%
Trykk 1015 hPa
Sikt 10 km eller mer
Overskyet i en høyde av 2300 ft
lette regnbyger

METAR: EFKI 242220Z AUTO 04004KT 9999 -SHRA OVC023 12/11 Q1015

Tid: 01:32 (22:32 UTC)

Varsel

Denne rapporten ble laget for 14 timer og 2 minutter siden, klokken 08:30 UTC
Varsel gyldig fra 24. klokken 09 UTC til 24. klokken 12 UTC
Vind 9 kt fra Nordøst
Sikt 10 km eller mer
Brutte skyer i en høyde av 1500 ft
Midlertidig
fra 24. klokken 09 UTC til 24. klokken 11 UTC
Brutte skyer i en høyde av 900 ft

TAF: EFKI 240830Z 2409/2412 05009KT 9999 BKN015 TEMPO 2409/2411 BKN009

Værobservasjoner og værvarsel for over 4000 flyplasser (METAR- og TAF-rapporter).

Tilgjengelige stasjoner er representert av de røde og gule prikkene på kartet.

Hold musepekeren over prikken for å se navnet på stasjonen.

Klikk så for å se værobservasjoner og -varsler.

For å forandre kartet kan du klikke på den grønne knappen med svart kryss for å zoome inn, på den grønne knappen med strek for å zoome ut, eller på de grønne pilene for å se tilstøtende kart.


METAR-TAF: